Chris Hadfield Airport
CYZR : now visible

Airfield :











YOU CAN JOIN US ON...

 
LOGIN :

Register | Disclaimer

   EN    FR    IT 

 









Legend :    VFR   Marginal VFR   IFR   Intensive IFR   Very Intensive IFR
Visi :
Ceiling :
>= 8 km
>= 3000ft
5 to 8 km
1000 to 3000 ft
1500m to 5 km
500 to 1000 ft
800 to 1500m
200 to 500 ft
< 800m
< 200 ft
Symbols :   Thunderstorms  Fog  Heavy snow  Heavy precipitations  Wind > 20 kt






- Airport Elevation : 594 ft
- IATA code : YZR


CYZR - Chris Hadfield

CURRENT METAR :
  • 161825Z AUTO 22004KT 160V250 9SM SCT050 BKN066 24/13 A3016 RMK SLP211 DENSITY ALT 1600FT

EXPIRED METARs :
  • 161813Z AUTO VRB08KT 5SM HZ SCT050 25/14 A3016 RMK SLP212 DENSITY ALT 1700FT
  • 161812Z AUTO VRB09KT 6SM HZ SCT050 25/14 A3016 RMK SLP212 DENSITY ALT 1600FT
  • 161801Z AUTO 14003KT 080V220 2 1/4SM HZ CLR 25/13 A3016 RMK VIS VRB 1-3 SLP213 DENSITY ALT 1600FT
  • 161749Z AUTO 16009KT 110V240 7SM CLR 25/14 A3017 RMK SLP214 DENSITY ALT 1700FT
  • 161730Z AUTO 17005KT 4SM HZ FEW049 24/15 A3017 RMK SLP214 DENSITY ALT 1600FT
  • 161700Z AUTO 19006KT 160V220 9SM FEW045 23/14 A3017 RMK SLP217 DENSITY ALT 1400FT
  • 161648Z AUTO 18008KT 140V200 8SM FEW045 24/14 A3017 RMK SLP216 DENSITY ALT 1500FT
  • 161638Z AUTO VRB04KT 4SM HZ SCT066 24/15 A3018 RMK SLP217 DENSITY ALT 1500FT
  • 161609Z AUTO 16004KT 130V210 9SM FEW039 BKN066 23/15 A3018 RMK SLP221 DENSITY ALT 1400FT
  • 161608Z AUTO 17003KT 130V210 3SM HZ FEW039 SCT066 23/15 A3018 RMK SLP221 DENSITY ALT 1400FT
  • 161559Z AUTO 14007KT 070V190 1 3/4SM HZ SCT039 23/16 A3018 RMK SLP221 DENSITY ALT 1500FT

TAF TAF CYZR
Valid from the 16 at 14:00 until the 17 at 02:00 UTC


161339Z 1614/1702 13008KT P6SM SCT070
FM161700 14010KT P6SM SCT040
TEMPO 1619/1622 BKN040
BECMG 1700/1702 14006KT RMK FCST BASED ON AUTO OBS. NXT FCST BY 162000Z
CZYZ FIR / North America



MET'MAP, your aeronautical weather chart ! - Copyright ORBIFLY December 2007 - Disclaimer

ORBIFLY MET'MAP TEAM :

Programming & Development : Alexandra Zaïnal
Concept & original design : Baudouin d'Aumeries
Assistance for programming : Marc-Olivier Méhu
Technical & hardware support : Manuel Goepfert

Contact : metmap@orbifly.com




SOURCES & CREDITS :

   NOAA       Earth
Advisory